createdAt,value
2019-01-30T00:00:31.865Z,92.29
2019-01-30T00:01:31.866Z,92.19
2019-01-30T00:02:31.835Z,92.19
2019-01-30T00:03:31.833Z,92.19
2019-01-30T00:04:31.809Z,92.02
2019-01-30T00:05:31.855Z,92.02
2019-01-30T00:06:31.809Z,92.13
2019-01-30T00:07:31.785Z,92.19
2019-01-30T00:08:31.779Z,92.33
2019-01-30T00:09:31.769Z,91.91
2019-01-30T00:10:31.752Z,92.13
2019-01-30T00:11:31.783Z,92.40
2019-01-30T00:12:31.753Z,92.33
2019-01-30T00:13:39.617Z,92.33
2019-01-30T00:14:31.718Z,92.13
2019-01-30T00:15:31.707Z,92.23
2019-01-30T00:16:31.691Z,92.44
2019-01-30T00:17:32.149Z,92.54
2019-01-30T00:18:31.671Z,92.54
2019-01-30T00:19:31.656Z,92.23
2019-01-30T00:20:31.646Z,92.54
2019-01-30T00:21:31.643Z,92.33
2019-01-30T00:22:31.647Z,92.85
2019-01-30T00:23:31.620Z,92.75
2019-01-30T00:24:31.604Z,92.65
2019-01-30T00:25:31.592Z,92.96
2019-01-30T00:26:31.604Z,92.65
2019-01-30T00:27:31.600Z,92.33
2019-01-30T00:28:31.575Z,92.85
2019-01-30T00:29:31.660Z,92.75
2019-01-30T00:30:31.546Z,92.75
2019-01-30T00:31:31.573Z,92.75
2019-01-30T00:32:31.555Z,92.85
2019-01-30T00:33:31.523Z,92.75
2019-01-30T00:34:31.497Z,92.75
2019-01-30T00:35:31.493Z,92.75
2019-01-30T00:36:31.481Z,92.75
2019-01-30T00:37:31.997Z,92.96
2019-01-30T00:38:31.461Z,92.79
2019-01-30T00:39:31.458Z,92.38
2019-01-30T00:40:31.439Z,92.69
2019-01-30T00:41:31.473Z,92.69
2019-01-30T00:42:31.831Z,92.90
2019-01-30T00:43:31.403Z,92.58
2019-01-30T00:44:31.397Z,92.58
2019-01-30T00:45:31.413Z,92.79
2019-01-30T00:46:31.399Z,93.11
2019-01-30T00:47:31.417Z,93.32
2019-01-30T00:48:31.361Z,93.63
2019-01-30T00:49:31.447Z,93.74
2019-01-30T00:50:31.472Z,93.63
2019-01-30T00:51:31.343Z,93.74
2019-01-30T00:52:31.366Z,93.42
2019-01-30T00:53:31.360Z,93.52
2019-01-30T00:54:32.158Z,93.63
2019-01-30T00:55:31.999Z,93.63
2019-01-30T00:56:31.287Z,93.74
2019-01-30T00:57:31.277Z,93.63
2019-01-30T00:58:31.286Z,93.52
2019-01-30T00:59:31.258Z,93.32
2019-01-30T01:00:31.240Z,93.63
2019-01-30T01:01:31.223Z,93.32
2019-01-30T01:02:31.226Z,93.11
2019-01-30T01:03:31.229Z,92.58
2019-01-30T01:04:31.547Z,93.01
2019-01-30T01:05:31.194Z,92.90
2019-01-30T01:06:31.176Z,93.01
2019-01-30T01:07:31.165Z,93.21
2019-01-30T01:08:31.218Z,93.32
2019-01-30T01:09:31.138Z,92.90
2019-01-30T01:10:31.400Z,92.65
2019-01-30T01:11:31.295Z,92.69
2019-01-30T01:12:31.460Z,92.69
2019-01-30T01:13:31.242Z,93.01
2019-01-30T01:14:31.122Z,92.69
2019-01-30T01:15:31.182Z,92.69
2019-01-30T01:16:31.216Z,92.69
2019-01-30T01:18:32.144Z,92.90
2019-01-30T01:19:31.046Z,92.69
2019-01-30T01:20:31.040Z,92.90
2019-01-30T01:21:31.269Z,92.69
2019-01-30T01:22:31.012Z,92.38
2019-01-30T01:23:31.476Z,92.58
2019-01-30T01:24:31.011Z,93.01
2019-01-30T01:25:30.990Z,92.79
2019-01-30T01:26:30.975Z,92.58
2019-01-30T01:27:30.994Z,92.73
2019-01-30T01:28:30.954Z,92.94
2019-01-30T01:29:31.113Z,93.36
2019-01-30T01:30:31.003Z,93.42
2019-01-30T01:31:30.980Z,93.67
2019-01-30T01:32:30.956Z,93.67
2019-01-30T01:33:30.905Z,93.63
2019-01-30T01:34:31.083Z,93.74
2019-01-30T01:35:30.952Z,93.78
2019-01-30T01:36:30.950Z,93.52
2019-01-30T01:37:30.858Z,93.63
2019-01-30T01:38:30.856Z,93.63
2019-01-30T01:39:31.066Z,93.57
2019-01-30T01:40:30.936Z,93.36
2019-01-30T01:41:31.158Z,92.94
2019-01-30T01:42:30.797Z,92.73
2019-01-30T01:43:30.901Z,93.04
2019-01-30T01:44:30.814Z,92.63
2019-01-30T01:46:31.856Z,93.67
2019-01-30T01:47:30.763Z,93.46
2019-01-30T01:48:30.749Z,93.78
2019-01-30T01:49:30.783Z,93.57
2019-01-30T01:50:30.729Z,93.36
2019-01-30T01:51:30.714Z,93.61
2019-01-30T01:52:30.826Z,92.83
2019-01-30T01:53:30.684Z,93.26
2019-01-30T01:54:30.712Z,92.83
2019-01-30T01:55:30.679Z,93.26
2019-01-30T01:56:30.675Z,92.83
2019-01-30T01:57:30.636Z,92.73
2019-01-30T01:58:30.626Z,92.83
2019-01-30T01:59:30.638Z,92.94
2019-01-30T02:00:35.506Z,93.04
2019-01-30T02:01:31.640Z,92.77
2019-01-30T02:02:30.600Z,92.46
2019-01-30T02:03:30.592Z,92.77
2019-01-30T02:04:30.838Z,93.19
2019-01-30T02:05:30.694Z,92.88
2019-01-30T02:06:30.586Z,92.88
2019-01-30T02:07:30.614Z,92.88
2019-01-30T02:08:30.677Z,92.98
2019-01-30T02:09:30.554Z,92.52
2019-01-30T02:10:30.498Z,92.46
2019-01-30T02:11:30.492Z,92.57
2019-01-30T02:12:30.486Z,92.46
2019-01-30T02:13:30.594Z,92.67
2019-01-30T02:14:30.481Z,92.67
2019-01-30T02:15:30.516Z,92.57
2019-01-30T02:16:30.440Z,92.67
2019-01-30T02:17:30.436Z,92.67
2019-01-30T02:18:30.446Z,92.46
2019-01-30T02:19:30.429Z,92.57
2019-01-30T02:20:30.426Z,92.57
2019-01-30T02:21:30.404Z,92.98
2019-01-30T02:22:30.383Z,92.46
2019-01-30T02:23:30.388Z,92.46
2019-01-30T02:24:30.360Z,92.67
2019-01-30T02:25:30.460Z,92.35
2019-01-30T02:26:30.401Z,92.25
2019-01-30T02:27:30.326Z,91.94
2019-01-30T02:28:30.320Z,92.14
2019-01-30T02:29:30.310Z,92.14
2019-01-30T02:30:30.318Z,92.14
2019-01-30T02:31:30.298Z,91.94
2019-01-30T02:32:30.297Z,92.04
2019-01-30T02:33:30.312Z,91.94
2019-01-30T02:34:30.257Z,92.04
2019-01-30T02:35:30.282Z,92.04
2019-01-30T02:36:30.239Z,92.25
2019-01-30T02:37:30.238Z,92.04
2019-01-30T02:38:30.238Z,92.35
2019-01-30T02:39:30.206Z,92.25
2019-01-30T02:40:30.202Z,92.35
2019-01-30T02:41:30.182Z,92.46
2019-01-30T02:42:30.168Z,91.83
2019-01-30T02:43:30.168Z,92.14
2019-01-30T02:44:30.156Z,91.94
2019-01-30T02:45:30.158Z,92.04
2019-01-30T02:46:30.124Z,92.25
2019-01-30T02:47:30.121Z,91.94
2019-01-30T02:48:30.104Z,92.14
2019-01-30T02:49:30.124Z,91.94
2019-01-30T02:50:30.128Z,91.72
2019-01-30T02:51:30.084Z,91.72
2019-01-30T02:52:30.075Z,92.04
2019-01-30T02:53:30.068Z,91.94
2019-01-30T02:54:30.048Z,91.83
2019-01-30T02:55:30.090Z,92.04
2019-01-30T02:56:30.027Z,91.94
2019-01-30T02:57:30.016Z,92.14
2019-01-30T02:58:30.004Z,91.89
2019-01-30T02:59:30.010Z,91.72
2019-01-30T03:00:29.997Z,91.83
2019-01-30T03:01:30.013Z,91.94
2019-01-30T03:02:29.979Z,91.83
2019-01-30T03:03:29.950Z,92.14
2019-01-30T03:04:29.944Z,91.83
2019-01-30T03:05:29.928Z,92.04
2019-01-30T03:06:29.954Z,91.83
2019-01-30T03:07:29.926Z,92.14
2019-01-30T03:08:29.911Z,92.14
2019-01-30T03:09:29.881Z,92.14
2019-01-30T03:10:29.879Z,92.14
2019-01-30T03:11:29.898Z,92.04
2019-01-30T03:12:29.866Z,92.04
2019-01-30T03:13:29.876Z,91.94
2019-01-30T03:14:29.849Z,91.94
2019-01-30T03:15:29.822Z,92.04
2019-01-30T03:16:29.859Z,92.35
2019-01-30T03:17:29.801Z,92.35
2019-01-30T03:18:29.813Z,92.04
2019-01-30T03:19:29.818Z,92.25
2019-01-30T03:20:29.790Z,91.94
2019-01-30T03:21:29.796Z,92.25
2019-01-30T03:22:29.763Z,92.14
2019-01-30T03:23:29.739Z,92.14
2019-01-30T03:24:29.753Z,91.83
2019-01-30T03:25:29.749Z,92.14
2019-01-30T03:26:29.756Z,92.19
2019-01-30T03:27:29.698Z,92.14
2019-01-30T03:28:29.699Z,92.04
2019-01-30T03:29:29.692Z,91.52
2019-01-30T03:30:29.703Z,91.41
2019-01-30T03:31:29.673Z,91.35
2019-01-30T03:32:29.707Z,91.41
2019-01-30T03:33:29.639Z,91.31
2019-01-30T03:34:29.646Z,91.31
2019-01-30T03:35:29.620Z,91.31
2019-01-30T03:36:29.620Z,91.31
2019-01-30T03:37:29.635Z,91.31
2019-01-30T03:38:29.588Z,91.35
2019-01-30T03:39:29.582Z,91.72
2019-01-30T03:40:29.588Z,91.62
2019-01-30T03:41:29.694Z,91.83
2019-01-30T03:42:29.574Z,91.09
2019-01-30T03:43:29.576Z,90.78
2019-01-30T03:44:29.534Z,90.68
2019-01-30T03:45:29.517Z,90.47
2019-01-30T03:46:29.525Z,90.47
2019-01-30T03:47:29.535Z,89.84
2019-01-30T03:48:29.502Z,89.42
2019-01-30T03:49:29.474Z,89.84
2019-01-30T03:50:29.475Z,90.05
2019-01-30T03:51:29.461Z,89.84
2019-01-30T03:52:29.566Z,89.95
2019-01-30T03:53:29.444Z,89.95
2019-01-30T03:54:29.438Z,90.36
2019-01-30T03:55:29.417Z,90.16
2019-01-30T03:56:29.404Z,89.42
2019-01-30T03:57:29.430Z,89.63
2019-01-30T03:58:29.383Z,89.47
2019-01-30T03:59:29.419Z,89.42
2019-01-30T04:00:29.376Z,89.42
2019-01-30T04:01:29.394Z,90.41
2019-01-30T04:02:29.362Z,90.26
2019-01-30T04:03:29.448Z,89.78
2019-01-30T04:04:29.315Z,89.88
2019-01-30T04:05:29.316Z,89.95
2019-01-30T04:06:29.315Z,90.05
2019-01-30T04:07:29.323Z,89.42
2019-01-30T04:08:29.278Z,89.22
2019-01-30T04:09:29.294Z,88.69
2019-01-30T04:11:30.316Z,88.69
2019-01-30T04:12:50.268Z,88.59
2019-01-30T04:13:50.226Z,88.73
2019-01-30T04:14:50.218Z,88.84
2019-01-30T04:15:29.224Z,88.90
2019-01-30T04:16:29.192Z,88.94
2019-01-30T04:18:30.273Z,88.62
2019-01-30T04:19:29.256Z,88.90
2019-01-30T04:20:29.306Z,88.73
2019-01-30T04:24:28.998Z,88.62
2019-01-30T04:25:07.982Z,88.59
2019-01-30T04:26:07.982Z,88.69
2019-01-30T04:27:07.968Z,88.42
2019-01-30T04:28:07.989Z,88.73
2019-01-30T04:29:07.976Z,88.62
2019-01-30T04:30:07.968Z,88.31
2019-01-30T04:31:07.926Z,88.62
2019-01-30T04:32:07.962Z,88.31
2019-01-30T04:33:07.934Z,88.31
2019-01-30T04:34:07.905Z,88.42
2019-01-30T04:35:07.880Z,88.42
2019-01-30T04:36:07.873Z,88.52
2019-01-30T04:37:07.865Z,88.62
2019-01-30T04:38:07.853Z,88.21
2019-01-30T04:39:07.905Z,88.42
2019-01-30T04:40:07.843Z,88.62
2019-01-30T04:41:07.818Z,88.62
2019-01-30T04:42:07.809Z,88.31
2019-01-30T04:43:07.801Z,88.84
2019-01-30T04:44:07.842Z,88.31
2019-01-30T04:45:07.780Z,88.62
2019-01-30T04:46:07.767Z,88.21
2019-01-30T04:47:07.762Z,89.25
2019-01-30T04:48:07.763Z,88.52
2019-01-30T04:49:07.770Z,88.46
2019-01-30T04:50:07.735Z,88.21
2019-01-30T04:51:07.722Z,88.42
2019-01-30T04:52:07.734Z,88.62
2019-01-30T04:53:07.692Z,88.31
2019-01-30T04:54:07.703Z,88.52
2019-01-30T04:55:07.667Z,88.42
2019-01-30T04:56:07.667Z,88.73
2019-01-30T04:57:07.669Z,88.42
2019-01-30T04:58:07.649Z,88.21
2019-01-30T04:59:07.692Z,88.62
2019-01-30T05:00:07.624Z,88.52
2019-01-30T05:01:07.615Z,88.73
2019-01-30T05:02:07.624Z,88.62
2019-01-30T05:03:07.600Z,88.42
2019-01-30T05:04:07.620Z,88.46
2019-01-30T05:05:07.572Z,88.67
2019-01-30T05:06:07.584Z,89.15
2019-01-30T05:07:07.545Z,89.15
2019-01-30T05:08:07.569Z,89.04
2019-01-30T05:09:07.557Z,88.84
2019-01-30T05:10:07.509Z,89.04
2019-01-30T05:11:07.509Z,88.42
2019-01-30T05:12:07.516Z,89.04
2019-01-30T05:13:07.492Z,88.42
2019-01-30T05:14:07.514Z,88.52
2019-01-30T05:15:07.481Z,89.04
2019-01-30T05:16:07.541Z,88.67
2019-01-30T05:17:07.455Z,88.52
2019-01-30T05:18:07.444Z,88.77
2019-01-30T05:19:07.427Z,88.67
2019-01-30T05:20:09.588Z,88.67
2019-01-30T05:21:07.434Z,88.67
2019-01-30T05:22:07.396Z,88.87
2019-01-30T05:23:07.382Z,89.09
2019-01-30T05:24:07.369Z,88.77
2019-01-30T05:25:07.389Z,89.09
2019-01-30T05:26:07.366Z,88.21
2019-01-30T05:27:07.347Z,87.99
2019-01-30T05:28:07.323Z,88.62
2019-01-30T05:29:07.312Z,88.46
2019-01-30T05:30:07.330Z,87.83
2019-01-30T05:31:07.300Z,87.93
2019-01-30T05:32:07.302Z,87.93
2019-01-30T05:33:07.287Z,87.93
2019-01-30T05:34:07.261Z,87.93
2019-01-30T05:35:07.320Z,87.83
2019-01-30T05:36:07.246Z,88.04
2019-01-30T05:37:07.243Z,87.93
2019-01-30T05:38:07.266Z,88.14
2019-01-30T05:39:07.228Z,88.04
2019-01-30T05:40:07.252Z,87.93
2019-01-30T05:41:07.218Z,88.04
2019-01-30T05:42:07.185Z,87.83
2019-01-30T05:43:07.183Z,87.89
2019-01-30T05:44:07.209Z,88.04
2019-01-30T05:45:07.214Z,88.24
2019-01-30T05:46:07.204Z,87.72
2019-01-30T05:47:07.200Z,87.83
2019-01-30T05:48:07.177Z,87.83
2019-01-30T05:49:07.130Z,87.93
2019-01-30T05:50:07.135Z,87.93
2019-01-30T05:51:07.100Z,87.83
2019-01-30T05:52:07.109Z,87.72
2019-01-30T05:53:07.079Z,88.04
2019-01-30T05:54:07.081Z,87.72
2019-01-30T05:55:07.093Z,87.93
2019-01-30T05:56:07.094Z,87.72
2019-01-30T05:57:07.045Z,87.83
2019-01-30T05:58:07.095Z,88.04
2019-01-30T05:59:07.019Z,87.83
2019-01-30T06:00:07.007Z,87.72
2019-01-30T06:01:07.007Z,88.35
2019-01-30T06:02:12.119Z,88.24
2019-01-30T06:03:07.967Z,88.04
2019-01-30T06:04:06.959Z,87.72
2019-01-30T06:05:06.951Z,87.62
2019-01-30T06:06:06.973Z,87.72
2019-01-30T06:07:06.945Z,87.83
2019-01-30T06:08:06.958Z,88.04
2019-01-30T06:09:06.951Z,87.62
2019-01-30T06:10:06.931Z,87.93
2019-01-30T06:11:06.934Z,87.72
2019-01-30T06:12:06.873Z,88.04
2019-01-30T06:13:06.877Z,87.93
2019-01-30T06:14:06.880Z,87.62
2019-01-30T06:15:06.851Z,87.83
2019-01-30T06:16:07.021Z,87.62
2019-01-30T06:17:06.836Z,87.62
2019-01-30T06:18:06.825Z,88.14
2019-01-30T06:19:06.815Z,87.83
2019-01-30T06:20:06.804Z,88.04
2019-01-30T06:21:06.845Z,87.93
2019-01-30T06:22:06.783Z,87.62
2019-01-30T06:23:06.772Z,87.72
2019-01-30T06:24:06.758Z,88.14
2019-01-30T06:25:06.739Z,88.04
2019-01-30T06:26:06.830Z,87.83
2019-01-30T06:27:06.761Z,88.14
2019-01-30T06:28:06.738Z,87.93
2019-01-30T06:29:06.707Z,87.62
2019-01-30T06:30:06.728Z,87.51
2019-01-30T06:31:06.681Z,87.83
2019-01-30T06:32:06.711Z,87.41
2019-01-30T06:34:07.721Z,87.93
2019-01-30T06:35:06.649Z,87.72
2019-01-30T06:36:06.643Z,87.41
2019-01-30T06:37:06.657Z,87.51
2019-01-30T06:38:06.617Z,87.30
2019-01-30T06:39:06.614Z,87.16
2019-01-30T06:40:06.591Z,87.20
2019-01-30T06:41:06.581Z,87.20
2019-01-30T06:42:06.587Z,87.16
2019-01-30T06:43:06.552Z,87.30
2019-01-30T06:44:06.557Z,87.09
2019-01-30T06:45:06.546Z,87.16
2019-01-30T06:46:06.556Z,87.20
2019-01-30T06:47:06.536Z,87.26
2019-01-30T06:48:06.549Z,87.05
2019-01-30T06:49:06.489Z,87.09
2019-01-30T06:50:06.489Z,87.26
2019-01-30T06:52:07.537Z,87.20
2019-01-30T06:53:06.453Z,87.09
2019-01-30T06:54:06.452Z,86.99
2019-01-30T06:55:06.483Z,86.88
2019-01-30T06:56:06.421Z,86.78
2019-01-30T06:57:06.429Z,86.78
2019-01-30T06:58:06.389Z,86.88
2019-01-30T06:59:06.411Z,86.43
2019-01-30T07:00:06.369Z,86.78
2019-01-30T07:01:06.354Z,86.36
2019-01-30T07:02:06.373Z,86.46
2019-01-30T07:03:06.337Z,86.46
2019-01-30T07:04:06.338Z,86.25
2019-01-30T07:05:06.327Z,86.25
2019-01-30T07:06:07.848Z,86.32
2019-01-30T07:07:06.339Z,86.22
2019-01-30T07:08:06.305Z,85.69
2019-01-30T07:09:06.273Z,85.69
2019-01-30T07:10:06.262Z,85.59
2019-01-30T07:11:10.794Z,86.00
2019-01-30T07:12:06.291Z,85.59
2019-01-30T07:13:06.245Z,85.90
2019-01-30T07:14:06.248Z,85.48
2019-01-30T07:15:06.223Z,85.27
2019-01-30T07:16:06.218Z,84.96
2019-01-30T07:17:06.239Z,84.75
2019-01-30T07:18:06.214Z,84.19
2019-01-30T07:19:06.179Z,84.75
2019-01-30T07:20:06.185Z,84.39
2019-01-30T07:21:06.157Z,84.61
2019-01-30T07:22:06.157Z,84.08
2019-01-30T07:23:06.172Z,83.87
2019-01-30T07:24:06.125Z,83.45
2019-01-30T07:25:06.123Z,83.66
2019-01-30T07:26:06.114Z,83.25
2019-01-30T07:27:06.089Z,82.79
2019-01-30T07:28:06.098Z,82.72
2019-01-30T07:29:06.085Z,82.62
2019-01-30T07:30:06.086Z,82.89
2019-01-30T07:31:06.055Z,82.72
2019-01-30T07:32:06.053Z,82.68
2019-01-30T07:33:06.124Z,82.82
2019-01-30T07:34:06.029Z,82.68
2019-01-30T07:35:06.040Z,82.47
2019-01-30T07:36:06.013Z,82.37
2019-01-30T07:37:05.987Z,82.26
2019-01-30T07:38:06.001Z,81.95
2019-01-30T07:39:05.989Z,82.26
2019-01-30T07:40:05.990Z,82.16
2019-01-30T07:41:05.949Z,82.23
2019-01-30T07:42:05.933Z,82.37
2019-01-30T07:43:05.985Z,82.33
2019-01-30T07:44:05.949Z,82.33
2019-01-30T07:45:05.920Z,82.16
2019-01-30T07:46:05.927Z,82.06
2019-01-30T07:47:05.882Z,82.65
2019-01-30T07:48:05.892Z,82.43
2019-01-30T07:49:05.876Z,82.43
2019-01-30T07:50:05.867Z,82.65
2019-01-30T07:51:05.854Z,82.75
2019-01-30T07:52:05.861Z,82.43
2019-01-30T07:53:05.897Z,82.33
2019-01-30T07:54:05.818Z,82.65
2019-01-30T07:55:05.807Z,82.75
2019-01-30T07:56:05.807Z,82.75
2019-01-30T07:57:05.795Z,82.75
2019-01-30T07:58:06.047Z,82.75
2019-01-30T07:59:05.765Z,82.23
2019-01-30T08:00:05.747Z,82.75
2019-01-30T08:01:05.747Z,82.43
2019-01-30T08:02:06.465Z,82.40
2019-01-30T08:03:05.758Z,82.75
2019-01-30T08:04:05.730Z,82.50
2019-01-30T08:05:05.808Z,82.75
2019-01-30T08:06:05.727Z,82.60
2019-01-30T08:07:05.693Z,82.33
2019-01-30T08:08:05.665Z,82.60
2019-01-30T08:09:05.673Z,82.50
2019-01-30T08:10:05.703Z,82.71
2019-01-30T08:11:07.338Z,82.50
2019-01-30T08:12:05.642Z,82.19
2019-01-30T08:13:05.623Z,81.87
2019-01-30T08:14:05.765Z,80.93
2019-01-30T08:15:05.617Z,80.73
2019-01-30T08:16:05.582Z,80.93
2019-01-30T08:17:05.648Z,81.15
2019-01-30T08:18:05.556Z,81.25
2019-01-30T08:19:05.571Z,80.83
2019-01-30T08:20:05.545Z,80.83
2019-01-30T08:21:05.545Z,81.00
2019-01-30T08:22:05.561Z,81.42
2019-01-30T08:23:05.808Z,81.42
2019-01-30T08:24:05.612Z,81.21
2019-01-30T08:25:05.736Z,80.79
2019-01-30T08:26:05.623Z,80.69
2019-01-30T08:27:05.795Z,80.27
2019-01-30T08:28:05.824Z,80.38
2019-01-30T08:29:05.931Z,80.16
2019-01-30T08:30:05.758Z,80.58
2019-01-30T08:32:06.990Z,80.06
2019-01-30T08:33:26.455Z,79.96
2019-01-30T08:34:05.540Z,79.54
2019-01-30T08:35:05.400Z,79.71
2019-01-30T08:36:05.449Z,79.19
2019-01-30T08:37:05.365Z,78.98
2019-01-30T08:39:06.435Z,79.64
2019-01-30T08:40:05.471Z,79.61
2019-01-30T08:41:05.399Z,79.50
2019-01-30T08:42:05.399Z,79.19
2019-01-30T08:43:05.373Z,79.29
2019-01-30T08:44:05.420Z,79.82
2019-01-30T08:45:05.312Z,79.29
2019-01-30T08:46:05.377Z,79.19
2019-01-30T08:47:05.265Z,79.08
2019-01-30T08:48:05.257Z,78.94
2019-01-30T08:49:05.247Z,78.53
2019-01-30T08:50:05.257Z,78.46
2019-01-30T08:51:05.220Z,78.74
2019-01-30T08:52:05.212Z,78.53
2019-01-30T08:53:05.209Z,78.42
2019-01-30T08:54:05.198Z,78.32
2019-01-30T08:55:05.209Z,78.11
2019-01-30T08:56:05.173Z,77.80
2019-01-30T08:57:05.155Z,77.38
2019-01-30T08:58:05.168Z,77.38
2019-01-30T08:59:05.904Z,77.27
2019-01-30T09:00:05.151Z,77.48
2019-01-30T09:01:05.134Z,77.38
2019-01-30T09:02:05.114Z,77.38
2019-01-30T09:03:14.569Z,77.48
2019-01-30T09:04:06.082Z,77.27
2019-01-30T09:05:05.124Z,76.86
2019-01-30T09:06:05.065Z,77.03
2019-01-30T09:07:05.069Z,76.30
2019-01-30T09:08:05.050Z,76.30
2019-01-30T09:09:05.030Z,75.46
2019-01-30T09:10:05.038Z,75.98
2019-01-30T09:11:05.040Z,75.98
2019-01-30T09:12:05.028Z,75.98
2019-01-30T09:13:04.994Z,75.67
2019-01-30T09:14:04.980Z,75.15
2019-01-30T09:15:04.967Z,74.84
2019-01-30T09:16:04.980Z,75.01
2019-01-30T09:17:08.329Z,75.01
2019-01-30T09:18:04.937Z,74.28
2019-01-30T09:19:04.934Z,74.80
2019-01-30T09:20:04.926Z,74.07
2019-01-30T09:21:05.082Z,74.70
2019-01-30T09:22:04.890Z,74.70
2019-01-30T09:23:04.880Z,73.97
2019-01-30T09:24:04.890Z,74.28
2019-01-30T09:25:04.869Z,74.49
2019-01-30T09:26:04.879Z,74.91
2019-01-30T09:27:04.878Z,74.38
2019-01-30T09:28:04.852Z,74.38
2019-01-30T09:29:04.819Z,73.97
2019-01-30T09:30:04.820Z,73.66
2019-01-30T09:31:04.851Z,73.86
2019-01-30T09:32:04.788Z,73.86
2019-01-30T09:33:04.779Z,73.03
2019-01-30T09:34:04.771Z,73.52
2019-01-30T09:35:04.760Z,73.34
2019-01-30T09:36:04.792Z,73.24
2019-01-30T09:37:04.783Z,73.45
2019-01-30T09:38:04.733Z,73.41
2019-01-30T09:39:04.719Z,73.93
2019-01-30T09:40:04.756Z,73.72
2019-01-30T09:41:04.714Z,72.89
2019-01-30T09:42:04.704Z,73.31
2019-01-30T09:43:04.683Z,72.68
2019-01-30T09:44:04.661Z,72.89
2019-01-30T09:45:04.662Z,73.31
2019-01-30T09:46:04.670Z,73.31
2019-01-30T09:47:04.748Z,72.58
2019-01-30T09:48:04.670Z,72.68
2019-01-30T09:49:04.640Z,72.68
2019-01-30T09:50:04.608Z,72.68
2019-01-30T09:51:04.605Z,73.10
2019-01-30T09:52:04.623Z,72.78
2019-01-30T09:53:04.577Z,72.58
2019-01-30T09:54:04.601Z,73.00
2019-01-30T09:55:04.546Z,73.10
2019-01-30T09:56:04.554Z,73.21
2019-01-30T09:57:04.551Z,73.00
2019-01-30T09:58:04.523Z,73.21
2019-01-30T09:59:04.542Z,73.52
2019-01-30T10:00:04.502Z,73.52
2019-01-30T10:01:04.480Z,73.00
2019-01-30T10:02:04.490Z,73.10
2019-01-30T10:03:04.494Z,73.38
2019-01-30T10:04:04.452Z,73.21
2019-01-30T10:05:04.480Z,73.31
2019-01-30T10:06:04.423Z,72.89
2019-01-30T10:07:04.467Z,72.96
2019-01-30T10:08:04.502Z,72.75
2019-01-30T10:09:04.402Z,73.10
2019-01-30T10:10:04.403Z,73.21
2019-01-30T10:11:04.405Z,73.17
2019-01-30T10:12:04.361Z,72.75
2019-01-30T10:13:04.397Z,72.34
2019-01-30T10:14:04.354Z,72.55
2019-01-30T10:15:04.346Z,72.89
2019-01-30T10:16:04.359Z,72.86
2019-01-30T10:17:04.354Z,72.75
2019-01-30T10:18:04.342Z,73.07
2019-01-30T10:19:04.294Z,72.55
2019-01-30T10:20:04.275Z,72.02
2019-01-30T10:21:04.285Z,71.40
2019-01-30T10:22:04.899Z,71.61
2019-01-30T10:23:04.288Z,71.47
2019-01-30T10:24:04.238Z,72.09
2019-01-30T10:25:04.221Z,71.78
2019-01-30T10:26:04.218Z,71.47
2019-01-30T10:27:04.217Z,71.05
2019-01-30T10:28:04.246Z,71.37
2019-01-30T10:29:04.213Z,70.95
2019-01-30T10:30:04.234Z,70.95
2019-01-30T10:31:04.214Z,70.64
2019-01-30T10:32:04.495Z,71.37
2019-01-30T10:33:04.168Z,70.81
2019-01-30T10:34:04.160Z,70.61
2019-01-30T10:35:04.178Z,70.19
2019-01-30T10:36:04.134Z,70.09
2019-01-30T10:37:04.128Z,70.71
2019-01-30T10:38:04.121Z,70.19
2019-01-30T10:39:04.093Z,69.15
2019-01-30T10:40:04.096Z,69.25
2019-01-30T10:41:04.081Z,69.32
2019-01-30T10:42:04.102Z,69.32
2019-01-30T10:43:04.042Z,69.67
2019-01-30T10:44:04.058Z,69.25
2019-01-30T10:45:04.038Z,69.22
2019-01-30T10:46:04.032Z,69.74
2019-01-30T10:47:04.000Z,69.01
2019-01-30T10:48:03.987Z,69.35
2019-01-30T10:49:04.028Z,68.70
2019-01-30T10:50:03.999Z,69.04
2019-01-30T10:51:03.986Z,68.73
2019-01-30T10:52:03.978Z,69.53
2019-01-30T10:53:03.930Z,69.12
2019-01-30T10:54:03.943Z,68.49
2019-01-30T10:55:03.924Z,68.18
2019-01-30T10:56:03.914Z,67.83
2019-01-30T10:57:03.912Z,67.94
2019-01-30T10:58:03.892Z,67.86
2019-01-30T10:59:03.920Z,67.83
2019-01-30T11:00:03.860Z,68.15
2019-01-30T11:01:03.856Z,68.25
2019-01-30T11:02:03.854Z,68.25
2019-01-30T11:03:03.841Z,67.94
2019-01-30T11:04:03.884Z,68.15
2019-01-30T11:05:03.893Z,68.25
2019-01-30T11:06:03.804Z,68.22
2019-01-30T11:07:03.800Z,68.25
2019-01-30T11:08:03.801Z,67.63
2019-01-30T11:09:03.805Z,68.04
2019-01-30T11:10:03.780Z,68.25
2019-01-30T11:11:07.850Z,68.35
2019-01-30T11:12:03.729Z,67.73
2019-01-30T11:13:03.740Z,67.21
2019-01-30T11:14:03.712Z,67.52
2019-01-30T11:15:03.719Z,66.87
2019-01-30T11:16:03.704Z,66.35
2019-01-30T11:17:03.693Z,66.35
2019-01-30T11:18:03.679Z,66.59
2019-01-30T11:19:03.674Z,66.56
2019-01-30T11:20:03.684Z,66.45
2019-01-30T11:21:05.965Z,66.56
2019-01-30T11:22:03.646Z,66.84
2019-01-30T11:23:03.630Z,66.42
2019-01-30T11:24:03.610Z,65.69
2019-01-30T11:25:05.608Z,65.97
2019-01-30T11:26:03.584Z,65.56
2019-01-30T11:27:03.596Z,65.87
2019-01-30T11:28:03.603Z,64.18
2019-01-30T11:29:03.552Z,62.88
2019-01-30T11:30:03.614Z,61.50
2019-01-30T11:31:03.552Z,60.06
2019-01-30T11:32:03.533Z,58.98
2019-01-30T11:33:03.582Z,56.93
2019-01-30T11:34:07.438Z,55.77
2019-01-30T11:35:03.504Z,53.34
2019-01-30T11:36:03.496Z,52.62
2019-01-30T11:37:03.475Z,52.11
2019-01-30T11:38:03.479Z,52.08
2019-01-30T11:39:03.481Z,50.70
2019-01-30T11:40:03.452Z,49.10
2019-01-30T11:41:03.448Z,48.85
2019-01-30T11:42:03.429Z,47.92
2019-01-30T11:43:03.422Z,47.66
2019-01-30T11:44:03.410Z,46.53
2019-01-30T11:45:03.432Z,46.03
2019-01-30T11:46:03.442Z,46.01
2019-01-30T11:47:03.380Z,45.99
2019-01-30T11:48:03.360Z,45.58
2019-01-30T11:49:03.352Z,45.48
2019-01-30T11:50:03.360Z,45.17
2019-01-30T11:51:03.353Z,45.29
2019-01-30T11:52:03.315Z,45.93
2019-01-30T11:53:03.298Z,45.83
2019-01-30T11:54:03.332Z,45.62
2019-01-30T11:55:03.291Z,45.64
2019-01-30T11:56:03.418Z,46.36
2019-01-30T11:57:03.297Z,46.06
2019-01-30T11:58:03.254Z,45.72
2019-01-30T11:59:03.236Z,45.54
2019-01-30T12:00:03.239Z,45.23
2019-01-30T12:01:03.649Z,45.97
2019-01-30T12:02:03.239Z,45.36
2019-01-30T12:03:03.238Z,46.72
2019-01-30T12:04:03.202Z,47.23
2019-01-30T12:05:03.251Z,46.72
2019-01-30T12:06:03.171Z,46.61
2019-01-30T12:07:03.190Z,46.30
2019-01-30T12:08:03.173Z,47.25
2019-01-30T12:09:03.128Z,48.18
2019-01-30T12:10:03.128Z,48.94
2019-01-30T12:11:03.109Z,49.25
2019-01-30T12:12:03.124Z,49.35
2019-01-30T12:13:03.216Z,48.84
2019-01-30T12:14:03.143Z,48.30
2019-01-30T12:15:03.064Z,48.30
2019-01-30T12:16:03.057Z,48.28
2019-01-30T12:17:03.046Z,48.18
2019-01-30T12:18:03.077Z,47.58
2019-01-30T12:19:03.050Z,48.53
2019-01-30T12:20:03.021Z,48.97
2019-01-30T12:21:03.010Z,49.17
2019-01-30T12:22:03.001Z,48.66
2019-01-30T12:23:03.010Z,49.17
2019-01-30T12:24:03.012Z,48.94
2019-01-30T12:25:02.976Z,48.63
2019-01-30T12:26:02.996Z,48.74
2019-01-30T12:27:02.937Z,48.20
2019-01-30T12:28:02.946Z,48.55
2019-01-30T12:29:02.917Z,49.30
2019-01-30T12:30:02.923Z,50.46
2019-01-30T12:31:02.993Z,51.51
2019-01-30T12:32:02.884Z,51.20
2019-01-30T12:33:02.906Z,51.31
2019-01-30T12:34:02.865Z,51.31
2019-01-30T12:35:02.860Z,50.76
2019-01-30T12:36:02.848Z,50.79
2019-01-30T12:37:02.833Z,50.99
2019-01-30T12:38:02.862Z,50.76
2019-01-30T12:39:02.810Z,50.35
2019-01-30T12:40:02.822Z,50.48
2019-01-30T12:41:02.795Z,50.68
2019-01-30T12:42:02.786Z,50.99
2019-01-30T12:43:02.780Z,51.10
2019-01-30T12:44:02.810Z,50.60
2019-01-30T12:45:02.753Z,50.94
2019-01-30T12:46:02.726Z,51.79
2019-01-30T12:47:02.724Z,52.33
2019-01-30T12:48:02.725Z,53.26
2019-01-30T12:49:02.742Z,53.16
2019-01-30T12:50:02.681Z,53.99
2019-01-30T12:51:02.747Z,53.88
2019-01-30T12:52:02.680Z,53.05
2019-01-30T12:53:02.675Z,54.09
2019-01-30T12:54:02.681Z,54.09
2019-01-30T12:55:02.648Z,54.09
2019-01-30T12:56:02.632Z,53.99
2019-01-30T12:57:02.637Z,53.47
2019-01-30T12:58:02.608Z,53.80
2019-01-30T12:59:02.680Z,54.09
2019-01-30T13:00:02.619Z,54.19
2019-01-30T13:01:02.631Z,53.36
2019-01-30T13:02:02.599Z,54.40
2019-01-30T13:03:02.554Z,53.88